Madawaska, ME (04756)

11:43 AM EDT on April 28, 2017 (GMT -0400)
Dad's Station | | Change Station

Elev 807 ft 47.35 °N, 68.32 °W | Updated 11 seconds ago

Overcast
Overcast
49.1 °F
Feels Like 49 °F
N
0.0
Wind Variable Wind from SSE
Gusts 0.0 mph

Today
High -- | Low -- °F
--% Chance of Precip.
Yesterday
High -- | Low -- °F
Precip. -- in
Pressure 29.91 in
Visibility 0.2 miles
Clouds
Windchill 49 °F
Dew Point 47 °F
Humidity 93%
Rainfall 0.04 in
Snow Depth Not available.
5:21 AM 7:40 PM
Waxing Crescent, 7% visible
METAR KFVE 281453Z AUTO 15008KT M1/4SM FG VV002 09/08 A2990 RMK AO2 SLP129 60000 T00890078 55009
Pressure 29.91 in
Visibility 0.2 miles
Clouds
Windchill 49 °F
Dew Point 47 °F
Humidity 93%
Rainfall 0.04 in
Snow Depth Not available.
5:21 AM 7:40 PM
Waxing Crescent, 7% visible
METAR KFVE 281453Z AUTO 15008KT M1/4SM FG VV002 09/08 A2990 RMK AO2 SLP129 60000 T00890078 55009

Get Severe Weather Alerts

Thanks for signing up!

Be on the lookout for a verification email in your inbox.

You'll start receiving the daily forecast at 8 AM.

×

10-Day Weather Forecast

Almanac

Astronomy

Apr. 28, 2017 Rise Set
Actual Time
Civil Twilight
Nautical Twilight
Astronomical Twilight
Moon
Length of Visible Light
Length of Day
Tomorrow will be .
, % of the Moon is Illuminated

Today's Extremes

State Highs State Lows

Community

WunderPhotos

WunderBlog® & News

Nearby

Air Quality

  Air Quality AQ Index Pollutant
Not available.

Snow Depth

Station Depth Elevation

Earthquake Activity

City Distance Mag. Time & Date
Minimum magnitude displayed is 2.5.

Coastal Water Temperatures

Place Temperature

Stations

Nearby Weather Stations

Station Location Temp. Windchill Dew Point Humidity Wind Precip. Elev Updated Type
                   

Watches & Warnings

There are currently no watches in effect.